Flight Track Log - Related Links

Times and Time Zones

All times are in EST time to prevent confusion due to time zone crossing. See the EJM826 flight status page for this flight to view local times or setup timezone preferences in your user account.

Time Position Orientation Groundspeed Altitude Reporting Facility
EST Latitude Longitude Course Direction KTS MPH feet Rate Location/Type
Fri 11:16:00 PM 43.1577 -110.0902 133° Southeast  Level Estimated
Fri 11:17:00 PM 43.0673 -109.9618 134° Southeast  Level Estimated
Fri 11:17:47 PM 43.5397 -110.7831 208° Southwest 157 181 10,800  Level Salt Lake Center
Fri 11:18:00 PM 42.9768 -109.8338 134° Southeast  Level Estimated
Fri 11:18:48 PM 43.5019 -110.8061 204° Southwest 150 173 13,200  Level Salt Lake Center
Fri 11:19:00 PM 42.8862 -109.7062 134° Southeast  Level Estimated
Fri 11:19:50 PM 43.4442 -110.7972 174° South 239 275 15,300  Level Salt Lake Center
Fri 11:20:00 PM 42.7954 -109.5789 134° Southeast  Level Estimated
Fri 11:20:51 PM 43.3803 -110.7228 140° Southeast 304 350 16,600  Level Salt Lake Center
Fri 11:21:00 PM 42.7045 -109.4521 134° Southeast  Level Estimated
Fri 11:21:52 PM 43.3008 -110.6467 145° Southeast 347 399 18,000  Level Salt Lake Center
Fri 11:22:00 PM 42.6134 -109.3256 134° Southeast  Level Estimated
Fri 11:22:54 PM 43.2092 -110.5600 145° Southeast 376 433 19,900  Level Salt Lake Center
Fri 11:23:55 PM 43.1167 -110.4675 144° Southeast 393 452 21,200 1,279 Climbing Salt Lake Center
Fri 11:24:56 PM 43.0092 -110.3619 144° Southeast 424 488 22,500 1,512 Climbing Salt Lake Center
Fri 11:25:58 PM 42.9158 -110.2719 145° Southeast 428 493 24,300 1,756 Climbing Salt Lake Center
Fri 11:26:59 PM 42.8219 -110.1822 145° Southeast 431 496 26,100 1,902 Climbing Salt Lake Center
Fri 11:28:01 PM 42.7072 -110.0708 144° Southeast 451 519 28,200 1,854 Climbing Salt Lake Center
Fri 11:29:02 PM 42.5986 -109.9658 145° Southeast 463 533 29,900 1,377 Climbing Salt Lake Center
Fri 11:30:03 PM 42.4942 -109.8661 145° Southeast 477 549 31,000 1,268 Climbing Salt Lake Center
Fri 11:31:05 PM 42.3839 -109.7628 145° Southeast 496 571 32,500 1,854 Climbing Salt Lake Center
Fri 11:32:06 PM 42.2564 -109.6406 145° Southeast 503 579 34,800 2,016 Climbing Salt Lake Center
Fri 11:33:07 PM 42.1503 -109.5403 145° Southeast 492 566 36,600 1,721 Climbing Salt Lake Center
Fri 11:34:08 PM 42.0278 -109.4250 145° Southeast 482 555 38,300 1,463 Climbing Salt Lake Center
Fri 11:35:10 PM 41.9236 -109.3275 145° Southeast 479 551 39,600 1,220 Climbing Salt Lake Center
Fri 11:36:11 PM 41.8194 -109.2300 145° Southeast 477 549 40,800 934 Climbing Salt Lake Center
Fri 11:37:12 PM 41.6964 -109.1164 145° Southeast 478 550 41,500 976 Climbing Salt Lake Center
Fri 11:38:14 PM 41.5917 -109.0203 146° Southeast 474 545 42,800 732 Climbing Salt Lake Center
Fri 11:39:15 PM 41.4897 -108.9158 142° Southeast 474 545 43,000 98 Climbing Salt Lake Center
Fri 11:40:16 PM 41.3661 -108.7886 142° Southeast 494 568 43,000  Level Salt Lake Center
Fri 11:41:17 PM 41.2675 -108.6625 136° Southeast 514 592 43,000  Level Salt Lake Center
Fri 11:42:19 PM 41.1719 -108.5275 133° Southeast 521 600 43,000  Level Salt Lake Center
Fri 11:43:20 PM 41.0606 -108.3681 133° Southeast 526 605 43,000  Level Salt Lake Center
Fri 11:43:58 PM 40.9972 -108.2769 133° Southeast 522 601 43,000  Level Denver Center
Fri 11:44:59 PM 40.9031 -108.1442 133° Southeast 519 597 43,000  Level Denver Center
Fri 11:46:00 PM 40.7911 -107.9869 133° Southeast 526 605 43,000  Level Denver Center
Fri 11:47:02 PM 40.6975 -107.8567 133° Southeast 523 602 43,000  Level Denver Center
Fri 11:48:03 PM 40.6019 -107.7247 134° Southeast 519 597 43,000  Level Denver Center
Fri 11:49:04 PM 40.4914 -107.5700 133° Southeast 519 597 43,000  Level Denver Center
Fri 11:50:06 PM 40.3961 -107.4383 134° Southeast 518 596 43,000  Level Denver Center
Fri 11:51:07 PM 40.2839 -107.2858 134° Southeast 519 597 43,000  Level Denver Center
Fri 11:52:08 PM 40.1883 -107.1547 134° Southeast 519 597 43,000  Level Denver Center
Fri 11:53:09 PM 40.0933 -107.0264 134° Southeast 516 594 43,000  Level Denver Center
Fri 11:54:11 PM 39.9831 -106.8742 133° Southeast 516 594 43,000  Level Denver Center
Fri 11:55:12 PM 39.8889 -106.7486 134° Southeast 513 590 43,000  Level Denver Center
Fri 11:56:13 PM 39.7897 -106.6136 134° Southeast 510 587 43,000  Level Denver Center
Fri 11:57:14 PM 39.6806 -106.4686 134° Southeast 520 598 43,000  Level Denver Center
Fri 11:58:15 PM 39.5825 -106.3369 134° Southeast 528 608 43,000  Level Denver Center
Fri 11:59:17 PM 39.4769 -106.1978 134° Southeast 535 616 43,000  Level Denver Center
Sat 12:00:18 AM 39.3708 -106.0594 135° Southeast 532 612 43,000  Level Denver Center
Sat 12:01:19 AM 39.2878 -105.9506 135° Southeast 533 613 43,000  Level Denver Center
Sat 12:02:20 AM 39.1664 -105.7906 134° Southeast 526 605 43,000  Level Denver Center
Sat 12:03:22 AM 39.0669 -105.6603 134° Southeast 515 593 43,000  Level Denver Center
Sat 12:04:23 AM 38.9492 -105.5083 135° Southeast 503 579 43,000  Level Denver Center
Sat 12:05:24 AM 38.8522 -105.3817 134° Southeast 500 575 43,000  Level Denver Center
Sat 12:06:25 AM 38.7547 -105.2567 135° Southeast 498 573 43,000  Level Denver Center
Sat 12:07:26 AM 38.6578 -105.1336 135° Southeast 495 570 43,000  Level Denver Center
Sat 12:08:28 AM 38.5592 -105.0081 135° Southeast 503 579 43,000 49 Level Denver Center
Sat 12:09:29 AM 38.4603 -104.8817 135° Southeast 504 580 43,100  Climbing Denver Center
Sat 12:10:30 AM 38.3619 -104.7572 135° Southeast 500 575 43,000 -49 Descending Denver Center
Sat 12:11:31 AM 38.2478 -104.6133 135° Southeast 510 587 43,000  Level Denver Center
Sat 12:12:32 AM 38.1511 -104.4933 136° Southeast 508 585 43,000  Level Denver Center
Sat 12:13:34 AM 38.0533 -104.3739 136° Southeast 509 586 43,000  Level Denver Center
Sat 12:14:35 AM 37.9389 -104.2317 136° Southeast 513 590 43,000  Level Denver Center
Sat 12:15:36 AM 37.8397 -104.1089 136° Southeast 517 595 43,000  Level Denver Center
Sat 12:16:37 AM 37.7392 -103.9853 136° Southeast 520 598 43,000  Level Denver Center
Sat 12:17:38 AM 37.6186 -103.8364 136° Southeast 530 610 43,000  Level Denver Center
Sat 12:18:39 AM 37.5153 -103.7094 136° Southeast 532 612 43,000  Level Denver Center
Sat 12:19:40 AM 37.4125 -103.5844 136° Southeast 532 612 43,000  Level Denver Center
Sat 12:20:41 AM 37.2933 -103.4408 136° Southeast 530 610 43,000  Level Denver Center
Sat 12:21:34 AM 37.2106 -103.3386 135° Southeast 526 605 43,000  Level Albuquerque Center
Sat 12:22:35 AM 37.0919 -103.1997 137° Southeast 523 602 43,000  Level Albuquerque Center
Sat 12:23:36 AM 36.9914 -103.0794 136° Southeast 522 601 43,000  Level Albuquerque Center
Sat 12:24:37 AM 36.8922 -102.9606 136° Southeast 518 596 43,000  Level Albuquerque Center
Sat 12:25:38 AM 36.7772 -102.8228 136° Southeast 514 592 43,000  Level Albuquerque Center
Sat 12:26:39 AM 36.6783 -102.7053 136° Southeast 512 589 43,000  Level Albuquerque Center
Sat 12:27:40 AM 36.5772 -102.5864 137° Southeast 516 594 43,000  Level Albuquerque Center
Sat 12:28:41 AM 36.4736 -102.4633 136° Southeast 517 595 43,000  Level Albuquerque Center
Sat 12:29:42 AM 36.3694 -102.3425 137° Southeast 514 592 43,000  Level Albuquerque Center
Sat 12:30:43 AM 36.2653 -102.2219 137° Southeast 513 590 43,000  Level Albuquerque Center
Sat 12:31:43 AM 36.1617 -102.1008 137° Southeast 512 589 43,000  Level Albuquerque Center
Sat 12:32:44 AM 36.0575 -101.9811 137° Southeast 513 590 43,000  Level Albuquerque Center
Sat 12:33:45 AM 35.9528 -101.8603 137° Southeast 513 590 43,000  Level Albuquerque Center
Sat 12:34:46 AM 35.8281 -101.7164 137° Southeast 512 589 43,000  Level Albuquerque Center
Sat 12:35:47 AM 35.7239 -101.5972 137° Southeast 509 586 43,000  Level Albuquerque Center
Sat 12:36:48 AM 35.6194 -101.4767 137° Southeast 509 586 43,000  Level Albuquerque Center
Sat 12:37:49 AM 35.5136 -101.3569 137° Southeast 511 588 43,000  Level Albuquerque Center
Sat 12:38:50 AM 35.4078 -101.2375 137° Southeast 511 588 43,000  Level Albuquerque Center
Sat 12:39:50 AM 35.3019 -101.1192 138° Southeast 510 587 43,000  Level Albuquerque Center
Sat 12:40:51 AM 35.1961 -101.0008 138° Southeast 512 589 43,000  Level Albuquerque Center
Sat 12:41:52 AM 35.0919 -100.8842 137° Southeast 509 586 43,000  Level Albuquerque Center
Sat 12:42:53 AM 34.9872 -100.7675 138° Southeast 509 586 43,000  Level Albuquerque Center
Sat 12:43:54 AM 34.8828 -100.6508 137° Southeast 508 585 43,000  Level Albuquerque Center
Sat 12:44:54 AM 34.7789 -100.5361 138° Southeast 507 583 43,000  Level Albuquerque Center
Sat 12:45:56 AM 34.6747 -100.4208 138° Southeast 506 582 43,000  Level Albuquerque Center
Sat 12:46:56 AM 34.5708 -100.3072 138° Southeast 505 581 43,000  Level Albuquerque Center
Sat 12:47:57 AM 34.4669 -100.1919 138° Southeast 505 581 43,000  Level Albuquerque Center
Sat 12:49:37 AM 34.3011 -100.0142 138° Southeast 508 585 43,000  Level Fort Worth Center
Sat 12:50:37 AM 34.1961 -99.8972 137° Southeast 510 587 43,000  Level Fort Worth Center
Sat 12:51:37 AM 34.0906 -99.7864 139° Southeast 509 586 43,000  Level Fort Worth Center
Sat 12:52:38 AM 33.9842 -99.6722 138° Southeast 503 579 43,000  Level Fort Worth Center
Sat 12:53:38 AM 33.8803 -99.5611 138° Southeast 504 580 43,000  Level Fort Worth Center
Sat 12:54:39 AM 33.7753 -99.4492 138° Southeast 504 580 43,000  Level Fort Worth Center
Sat 12:55:39 AM 33.6700 -99.3358 138° Southeast 506 582 43,000  Level Fort Worth Center
Sat 12:56:39 AM 33.5658 -99.2239 138° Southeast 501 577 43,000  Level Fort Worth Center
Sat 12:57:40 AM 33.4617 -99.1125 138° Southeast 499 574 43,000  Level Fort Worth Center
Sat 12:58:40 AM 33.3581 -99.0022 138° Southeast 496 571 43,000  Level Fort Worth Center
Sat 12:59:40 AM 33.2553 -98.8933 138° Southeast 495 570 43,000  Level Fort Worth Center
Sat 01:00:41 AM 33.1517 -98.7839 138° Southeast 495 570 43,000  Level Fort Worth Center
Sat 01:01:41 AM 33.0283 -98.6531 138° Southeast 493 567 43,000  Level Fort Worth Center
Sat 01:02:41 AM 32.9447 -98.5664 139° Southeast 494 568 43,000  Level Fort Worth Center
Sat 01:03:42 AM 32.8306 -98.4478 139° Southeast 493 567 43,000  Level Fort Worth Center
Sat 01:04:42 AM 32.7272 -98.3400 139° Southeast 494 568 43,000  Level Fort Worth Center
Sat 01:05:43 AM 32.6250 -98.2336 139° Southeast 493 567 43,000  Level Fort Worth Center
Sat 01:06:43 AM 32.5203 -98.1261 139° Southeast 498 573 43,000  Level Fort Worth Center
Sat 01:07:43 AM 32.4158 -98.0175 139° Southeast 501 577 43,000  Level Fort Worth Center
Sat 01:08:43 AM 32.3108 -97.9097 139° Southeast 503 579 43,000  Level Fort Worth Center
Sat 01:09:44 AM 32.2061 -97.8006 139° Southeast 506 582 43,000  Level Fort Worth Center
Sat 01:10:44 AM 32.1003 -97.6939 139° Southeast 503 579 43,000  Level Fort Worth Center
Sat 01:11:44 AM 31.9961 -97.5872 139° Southeast 499 574 43,000  Level Fort Worth Center
Sat 01:12:45 AM 31.8819 -97.4714 139° Southeast 497 572 43,000  Level Fort Worth Center
Sat 01:13:45 AM 31.7761 -97.3661 140° Southeast 494 568 43,000  Level Fort Worth Center
Sat 01:14:45 AM 31.6711 -97.2592 139° Southeast 492 566 43,000  Level Fort Worth Center
Sat 01:15:45 AM 31.5647 -97.1536 140° Southeast 494 568 43,000  Level Fort Worth Center
Sat 01:16:46 AM 31.4581 -97.0467 139° Southeast 496 571 43,000 -298 Level Fort Worth Center
Sat 01:17:46 AM 31.3508 -96.9394 139° Southeast 498 573 42,400 -1,467 Descending Fort Worth Center
Sat 01:19:01 AM 31.2244 -96.8136 140° Southeast 496 571 39,700 -2,288 Descending Houston Center
Sat 01:19:44 AM 31.1358 -96.7292 141° Southeast 502 578 37,900 -2,449 Descending Houston Center
Sat 01:19:50 AM 31.1269 -96.7206 140° Southeast 504 580 37,700 -1,765 Descending Houston Center
Sat 01:20:01 AM 31.1139 -96.7050 134° Southeast 507 583 37,400 -2,400 Descending Houston Center
Sat 01:20:50 AM 31.0175 -96.6131 141° Southeast 527 606 35,300 -2,400 Descending Houston Center
Sat 01:21:01 AM 30.9994 -96.5911 134° Southeast 525 604 35,000 -2,328 Descending Houston Center
Sat 01:21:57 AM 30.8964 -96.4900 140° Southeast 518 596 32,700 -2,459 Descending Houston Center
Sat 01:22:02 AM 30.8889 -96.4828 140° Southeast 518 596 32,500 -2,509 Descending Houston Center
Sat 01:22:52 AM 30.7961 -96.3942 141° Southeast 521 600 30,400 -2,600 Descending Houston Center
Sat 01:23:02 AM 30.7739 -96.3719 139° Southeast 525 604 29,900 -3,000 Descending Houston Center
Sat 01:23:52 AM 30.6803 -96.2856 142° Southeast 513 590 27,400 -3,000 Descending Houston Center
Sat 01:24:02 AM 30.6633 -96.2694 141° Southeast 513 590 26,900 -3,148 Descending Houston Center
Sat 01:24:53 AM 30.5711 -96.1839 141° Southeast 476 548 24,200 -2,951 Descending Houston Center
Sat 01:25:03 AM 30.5597 -96.1703 134° Southeast 483 556 23,900 -2,900 Descending Houston Center
Sat 01:25:53 AM 30.4750 -96.0906 141° Southeast 464 534 21,300 -3,153 Descending Houston Center
Sat 01:26:02 AM 30.4575 -96.0750 143° Southeast 468 539 20,800 -3,049 Descending Houston Center
Sat 01:26:54 AM 30.3725 -95.9958 141° Southeast 438 504 18,200 -2,951 Descending Houston Center
Sat 01:27:03 AM 30.3625 -95.9867 142° Southeast 449 517 17,800 -2,951 Descending Houston Center
Sat 01:27:55 AM 30.2789 -95.9097 142° Southeast 418 481 15,200 -2,900 Descending Houston Center
Sat 01:28:03 AM 30.2719 -95.9006 131° Southeast 431 496 14,900 -2,900 Descending Houston Center
Sat 01:28:55 AM 30.1942 -95.8303 142° Southeast 393 452 12,300 -2,800 Descending Houston Center
Sat 01:29:03 AM 30.1858 -95.8228 142° Southeast 405 466 12,100 -1,881 Descending Houston Center
Sat 01:30:02 AM 30.1097 -95.7531 142° Southeast 343 395 10,200 -1,800 Descending Houston Center
Sat 01:30:03 AM 30.1100 -95.7511 81° East 358 412 10,300 -2,000 Climbing Houston Center
Sat 01:31:02 AM 30.0392 -95.6889 143° Southeast 322 371 8,200 -2,100 Descending Houston Center
Sat 01:31:03 AM 30.0386 -95.6869 108° East 332 382 8,200 -1,967 Level Houston Center
Sat 01:32:03 AM 29.9717 -95.6247 141° Southeast 316 364 6,200 -1,650 Descending Houston Center
Sat 01:33:03 AM 29.9119 -95.5697 141° Southeast 287 330 4,900 -1,343 Descending Houston Center
Sat 01:33:10 AM 29.9039 -95.5625 142° Southeast 264 304 4,700 -1,522 Descending Houston Center
Sat 01:34:10 AM 29.8492 -95.5136 142° Southeast 247 284 3,200 -1,421 Descending Houston Center
Sat 01:35:04 AM 29.8042 -95.4706 140° Southeast 246 283 2,000 -1,180 Descending Houston Center
Sat 01:35:11 AM 29.7983 -95.4644 138° Southeast 231 266 2,000  Level Houston Center
Sat 01:36:04 AM 29.7653 -95.4219 132° Southeast 219 252 2,000  Level Houston Center
Sat 01:36:12 AM 29.7581 -95.4139 136° Southeast 202 232 2,000  Level Houston Center
Sat 01:37:04 AM 29.7281 -95.3742 131° Southeast 203 234 2,000  Level Houston Center
Sat 01:37:12 AM 29.7200 -95.3656 137° Southeast 200 230 2,000 -600 Level Houston Center
Sat 01:38:04 AM 29.6917 -95.3325 135° Southeast 193 222 1,400 -885 Descending Houston Center
Sat 01:38:13 AM 29.6850 -95.3264 141° Southeast 163 188 1,100 -900 Descending Houston Center
Sat 01:39:04 AM 29.6642 -95.3003 133° Southeast 165 190 500 -700 Descending Houston Center
Sat 01:39:13 AM 29.6592 -95.2958 142° Southeast 125 144 400 -393 Descending Houston Center
Sat 01:40:05 AM 29.6428 -95.2756 133° Southeast 148 170 100 -346 Descending Houston Center

Login

Don't have an account? Register now (free) for customized features, flight alerts, and more!